Time;durP1;ratioP1;P1;durP2;ratioP2;P2;SDS_P1;SDS_P2;PMS_P1;PMS_P2;Temp;Humidity;BMP_temperature;BMP_pressure;BME280_temperature;BME280_humidity;BME280_pressure;Samples;Min_cycle;Max_cycle;Signal;HPM_P1;HPM_P2
2021/08/10 00:00:08;;;;;;;11.80;5.20;;;640.90;2432.00;;;;;;5013095;28;20484;-83
2021/08/10 00:02:34;;;;;;;9.70;6.13;;;665.60;2432.00;;;;;;5010586;28;20109;-82
2021/08/10 00:05:00;;;;;;;6.50;4.35;;;665.60;2432.00;;;;;;5015151;28;20176;-84
2021/08/10 00:07:26;;;;;;;6.50;4.93;;;665.60;2432.00;;;;;;5015186;28;20087;-85
2021/08/10 00:09:51;;;;;;;6.53;4.88;;;640.80;2432.00;;;;;;5015168;28;20120;-84
2021/08/10 00:12:17;;;;;;;13.70;5.10;;;640.80;2432.00;;;;;;5014823;28;20024;-84
2021/08/10 00:14:43;;;;;;;6.55;4.75;;;640.80;2432.00;;;;;;5015104;28;20032;-84
2021/08/10 00:17:08;;;;;;;7.75;4.80;;;640.70;2432.00;;;;;;5015183;28;20032;-85
2021/08/10 00:19:34;;;;;;;7.80;4.80;;;640.80;2432.00;;;;;;5015388;28;20018;-84
2021/08/10 00:22:00;;;;;;;6.22;5.18;;;640.70;2432.00;;;;;;5015285;28;20033;-84
2021/08/10 00:24:26;;;;;;;7.53;4.93;;;640.60;2432.00;;;;;;5014619;28;20504;-84
2021/08/10 00:26:52;;;;;;;8.52;4.60;;;640.60;2432.00;;;;;;5048231;28;20068;-84
2021/08/10 00:29:17;;;;;;;8.55;4.78;;;640.60;2432.00;;;;;;5047846;28;20037;-84
2021/08/10 00:31:43;;;;;;;8.95;5.65;;;640.50;2432.00;;;;;;5014645;28;20045;-83
2021/08/10 00:34:09;;;;;;;8.18;5.63;;;640.50;2432.00;;;;;;5014389;28;20065;-85
2021/08/10 00:36:37;;;;;;;10.98;6.43;;;640.40;2432.00;;;;;;5014622;28;20084;-82
2021/08/10 00:39:07;;;;;;;7.47;5.25;;;640.40;2432.00;;;;;;5014496;28;20439;-83
2021/08/10 00:41:33;;;;;;;11.10;5.35;;;640.40;2432.00;;;;;;5014043;28;20560;-82
2021/08/10 00:43:58;;;;;;;14.20;6.43;;;640.40;2432.00;;;;;;5014333;28;20126;-83
2021/08/10 00:46:24;;;;;;;9.70;5.22;;;640.40;2432.00;;;;;;5014306;28;20034;-84
2021/08/10 00:48:50;;;;;;;11.48;6.45;;;640.40;2432.00;;;;;;5014155;28;20113;-83
2021/08/10 00:51:16;;;;;;;12.95;5.20;;;640.40;2432.00;;;;;;5014067;28;20045;-83
2021/08/10 00:53:42;;;;;;;7.32;5.07;;;640.30;2432.00;;;;;;5014474;28;20165;-84
2021/08/10 00:56:09;;;;;;;9.52;5.20;;;640.30;2432.00;;;;;;5014462;28;20087;-84
2021/08/10 00:58:36;;;;;;;9.27;5.63;;;640.30;2432.00;;;;;;5014372;28;20037;-85
2021/08/10 01:01:02;;;;;;;8.35;5.82;;;640.30;2432.00;;;;;;5013582;28;20029;-84
2021/08/10 01:03:28;;;;;;;10.77;5.82;;;640.20;2432.00;;;;;;5012718;28;20133;-82
2021/08/10 01:05:53;;;;;;;10.57;5.32;;;640.20;2432.00;;;;;;5006723;28;20137;-84
2021/08/10 01:08:48;;;;;;;7.57;5.55;;;640.20;2432.00;;;;;;5008350;28;20491;-83
2021/08/10 01:11:25;;;;;;;8.90;5.68;;;640.20;2432.00;;;;;;5012325;28;20025;-84
2021/08/10 01:14:11;;;;;;;8.02;5.53;;;640.20;2432.00;;;;;;5012225;28;20117;-82
2021/08/10 01:16:42;;;;;;;7.72;5.80;;;640.10;2432.00;;;;;;5015362;28;20485;-84
2021/08/10 01:19:50;;;;;;;7.22;5.20;;;640.00;2432.00;;;;;;5012312;28;20497;-84
2021/08/10 01:22:19;;;;;;;9.57;5.57;;;640.00;2432.00;;;;;;5010773;28;20030;-83
2021/08/10 01:24:55;;;;;;;9.60;5.80;;;640.00;2432.00;;;;;;5009506;28;20018;-84
2021/08/10 01:27:30;;;;;;;6.65;5.43;;;640.00;2432.00;;;;;;5012939;28;20053;-84
2021/08/10 01:30:12;;;;;;;7.47;5.40;;;640.00;2432.00;;;;;;5044537;28;20034;-84
2021/08/10 01:32:42;;;;;;;8.35;5.65;;;615.30;2432.00;;;;;;5008215;28;20410;-84
2021/08/10 01:35:08;;;;;;;6.28;5.00;;;615.20;2432.00;;;;;;5017608;28;20293;-84
2021/08/10 01:37:37;;;;;;;14.63;6.45;;;615.20;2432.00;;;;;;5010255;28;20109;-83
2021/08/10 01:40:06;;;;;;;9.15;7.18;;;615.20;2432.00;;;;;;5013249;28;20061;-84
2021/08/10 01:42:33;;;;;;;8.75;5.38;;;615.20;2432.00;;;;;;5013257;28;20030;-81
2021/08/10 01:45:02;;;;;;;9.55;6.22;;;615.10;2432.00;;;;;;5012982;28;20033;-81
2021/08/10 01:47:30;;;;;;;10.75;6.03;;;615.20;2432.00;;;;;;5019743;28;20033;-80
2021/08/10 01:49:59;;;;;;;10.48;6.00;;;615.10;2432.00;;;;;;5023745;28;20029;-80
2021/08/10 01:52:27;;;;;;;9.90;6.13;;;615.10;2432.00;;;;;;5016158;28;20034;-81
2021/08/10 01:54:54;;;;;;;8.60;6.38;;;615.10;2432.00;;;;;;5011798;28;20032;-81
2021/08/10 01:57:20;;;;;;;7.03;4.72;;;615.10;2432.00;;;;;;5001002;28;20084;-80
2021/08/10 01:59:48;;;;;;;10.18;5.97;;;615.00;2432.00;;;;;;5004518;28;20026;-81
2021/08/10 02:02:14;;;;;;;8.40;6.40;;;615.10;2432.00;;;;;;5010339;28;20055;-81
2021/08/10 02:04:43;;;;;;;9.98;5.75;;;615.00;2432.00;;;;;;5010882;28;20038;-80
2021/08/10 02:07:09;;;;;;;8.88;6.10;;;614.90;2432.00;;;;;;5009526;28;20167;-82
2021/08/10 02:09:37;;;;;;;12.10;6.30;;;614.90;2432.00;;;;;;5026685;28;20098;-82
2021/08/10 02:12:04;;;;;;;6.70;5.65;;;614.90;2432.00;;;;;;5014176;28;20041;-82
2021/08/10 02:14:31;;;;;;;11.07;6.38;;;614.90;2432.00;;;;;;5010925;28;20959;-81
2021/08/10 02:17:01;;;;;;;9.98;6.75;;;614.80;2432.00;;;;;;5003349;28;20037;-82
2021/08/10 02:19:28;;;;;;;7.75;6.43;;;614.80;2432.00;;;;;;5020712;28;20021;-82
2021/08/10 02:22:02;;;;;;;11.77;6.20;;;614.80;2432.00;;;;;;5014948;28;20034;-80
2021/08/10 02:24:48;;;;;;;10.90;6.00;;;614.80;2432.00;;;;;;5049157;28;20404;-81
2021/08/10 02:27:23;;;;;;;11.07;5.97;;;614.80;2432.00;;;;;;5010338;28;20575;-81
2021/08/10 02:29:51;;;;;;;8.23;6.68;;;614.90;2432.00;;;;;;5041317;28;20042;-82
2021/08/10 02:32:22;;;;;;;13.00;7.00;;;614.90;2432.00;;;;;;5001515;28;20037;-80
2021/08/10 02:34:49;;;;;;;8.43;6.00;;;614.80;2432.00;;;;;;5020470;28;20505;-82
2021/08/10 02:37:18;;;;;;;9.32;5.95;;;614.90;2432.00;;;;;;5005920;28;20121;-82
2021/08/10 02:39:46;;;;;;;8.63;6.30;;;614.80;2432.00;;;;;;5011113;28;20026;-82
2021/08/10 02:42:15;;;;;;;10.00;6.65;;;614.80;2432.00;;;;;;5007606;28;20036;-82
2021/08/10 02:44:42;;;;;;;9.38;6.72;;;614.80;2432.00;;;;;;5012582;28;20040;-82
2021/08/10 02:47:08;;;;;;;9.88;6.03;;;614.70;2432.00;;;;;;5007451;28;20077;-82
2021/08/10 02:49:34;;;;;;;11.77;7.03;;;614.70;2432.00;;;;;;5011942;28;20428;-82
2021/08/10 02:52:00;;;;;;;10.43;6.43;;;614.70;2432.00;;;;;;5014185;28;20063;-82
2021/08/10 02:54:26;;;;;;;8.52;6.00;;;614.70;2432.00;;;;;;5019681;28;20025;-83
2021/08/10 02:56:56;;;;;;;8.27;6.15;;;614.70;2432.00;;;;;;5016985;28;20065;-83
2021/08/10 02:59:44;;;;;;;10.93;7.20;;;614.60;2432.00;;;;;;5005386;28;20023;-82
2021/08/10 03:02:17;;;;;;;9.13;6.53;;;614.60;2432.00;;;;;;5016486;28;20034;-82
2021/08/10 03:04:55;;;;;;;8.57;6.78;;;614.60;2432.00;;;;;;5015328;28;20559;-83
2021/08/10 03:07:23;;;;;;;8.18;6.47;;;614.60;2432.00;;;;;;5008410;28;20037;-83
2021/08/10 03:09:52;;;;;;;10.00;6.38;;;614.70;2432.00;;;;;;5010283;28;20038;-83
2021/08/10 03:12:20;;;;;;;7.82;5.70;;;614.80;2432.00;;;;;;5004435;28;20397;-83
2021/08/10 03:14:48;;;;;;;9.90;7.50;;;614.80;2432.00;;;;;;5026128;28;20022;-82
2021/08/10 03:17:15;;;;;;;11.45;7.07;;;614.70;2432.00;;;;;;5006002;28;20026;-83
2021/08/10 03:19:41;;;;;;;10.05;7.78;;;614.70;2432.00;;;;;;5017036;28;20026;-81
2021/08/10 03:22:08;;;;;;;10.45;7.13;;;614.70;2432.00;;;;;;5009651;28;20056;-80
2021/08/10 03:24:34;;;;;;;10.98;8.15;;;614.70;2432.00;;;;;;5002361;28;20030;-81
2021/08/10 03:27:04;;;;;;;13.10;9.48;;;614.80;2432.00;;;;;;5010357;28;20666;-80
2021/08/10 03:29:31;;;;;;;12.20;9.60;;;614.70;2432.00;;;;;;5007153;28;20022;-82
2021/08/10 03:31:57;;;;;;;13.20;9.13;;;614.80;2432.00;;;;;;5014100;28;20485;-82
2021/08/10 03:34:23;;;;;;;14.55;10.70;;;614.80;2432.00;;;;;;5015113;28;20064;-82
2021/08/10 03:36:50;;;;;;;22.83;10.68;;;614.70;2432.00;;;;;;5047884;28;20030;-82
2021/08/10 03:39:16;;;;;;;12.18;8.77;;;614.50;2432.00;;;;;;5015181;28;20108;-82
2021/08/10 03:41:44;;;;;;;11.50;8.48;;;589.70;2432.00;;;;;;5014575;28;20029;-83
2021/08/10 03:44:10;;;;;;;10.18;8.50;;;589.70;2432.00;;;;;;5011780;28;20026;-81
2021/08/10 03:46:36;;;;;;;9.77;7.93;;;614.40;2432.00;;;;;;5003905;28;20495;-82
2021/08/10 03:49:02;;;;;;;12.55;8.43;;;614.40;2432.00;;;;;;5015568;28;20026;-82
2021/08/10 03:51:30;;;;;;;11.95;9.43;;;614.40;2432.00;;;;;;5014380;28;20558;-80
2021/08/10 03:53:56;;;;;;;10.40;7.93;;;614.40;2432.00;;;;;;5019671;28;20430;-82
2021/08/10 03:56:24;;;;;;;9.07;7.50;;;614.40;2432.00;;;;;;5015747;28;20018;-82
2021/08/10 03:58:52;;;;;;;12.27;7.97;;;589.70;2432.00;;;;;;5008748;28;20025;-80
2021/08/10 04:01:19;;;;;;;8.40;7.47;;;589.70;2432.00;;;;;;5016120;28;20034;-81
2021/08/10 04:03:46;;;;;;;13.20;7.65;;;589.60;2432.00;;;;;;5013319;28;20568;-82
2021/08/10 04:06:13;;;;;;;11.88;7.95;;;589.70;2432.00;;;;;;5023850;28;20026;-80
2021/08/10 04:08:39;;;;;;;12.15;8.05;;;614.40;2432.00;;;;;;5013887;28;20492;-80
2021/08/10 04:11:05;;;;;;;12.93;7.38;;;614.60;2432.00;;;;;;5015704;28;20033;-81
2021/08/10 04:13:34;;;;;;;11.35;7.22;;;614.60;2432.00;;;;;;5014965;28;20026;-81
2021/08/10 04:16:06;;;;;;;9.85;7.13;;;614.80;2432.00;;;;;;5013466;28;20026;-81
2021/08/10 04:18:34;;;;;;;15.18;7.22;;;614.70;2432.00;;;;;;5014955;28;20072;-81
2021/08/10 04:21:00;;;;;;;8.93;6.90;;;614.70;2432.00;;;;;;5017521;28;20076;-81
2021/08/10 04:23:26;;;;;;;11.57;8.20;;;614.60;2432.00;;;;;;5011236;28;20386;-81
2021/08/10 04:25:52;;;;;;;10.20;7.30;;;614.60;2432.00;;;;;;5014606;28;20034;-80
2021/08/10 04:28:17;;;;;;;13.75;7.93;;;614.50;2432.00;;;;;;5012054;28;20026;-80
2021/08/10 04:30:46;;;;;;;8.68;7.50;;;614.60;2432.00;;;;;;5013156;28;20492;-81
2021/08/10 04:33:12;;;;;;;12.27;8.38;;;614.50;2432.00;;;;;;5010187;28;20037;-81
2021/08/10 04:35:38;;;;;;;17.70;12.65;;;614.50;2432.00;;;;;;5011912;28;20457;-81
2021/08/10 04:38:04;;;;;;;12.50;8.60;;;614.70;2432.00;;;;;;5006303;28;20066;-80
2021/08/10 04:40:31;;;;;;;17.90;9.00;;;614.80;2432.00;;;;;;5010972;28;20392;-80
2021/08/10 04:42:58;;;;;;;14.15;9.80;;;614.90;2432.00;;;;;;5009915;28;20037;-80
2021/08/10 04:45:24;;;;;;;12.55;9.25;;;614.90;2432.00;;;;;;5011369;28;20036;-80
2021/08/10 04:47:52;;;;;;;14.05;8.95;;;614.90;2432.00;;;;;;5012740;28;20022;-80
2021/08/10 04:50:18;;;;;;;12.05;9.60;;;614.90;2432.00;;;;;;5016088;28;20427;-80
2021/08/10 04:52:44;;;;;;;11.48;9.45;;;615.10;2432.00;;;;;;5001736;28;20029;-81
2021/08/10 04:55:10;;;;;;;14.82;9.23;;;615.10;2432.00;;;;;;5015329;28;20034;-80
2021/08/10 04:57:35;;;;;;;12.38;8.68;;;615.20;2432.00;;;;;;5015893;28;20080;-80
2021/08/10 05:00:01;;;;;;;16.98;8.85;;;615.20;2432.00;;;;;;5006116;28;20425;-80
2021/08/10 05:02:27;;;;;;;15.20;9.68;;;640.00;2432.00;;;;;;5005979;28;20523;-80
2021/08/10 05:04:53;;;;;;;13.63;9.05;;;640.10;2432.00;;;;;;5017056;28;20049;-81
2021/08/10 05:07:19;;;;;;;18.10;10.38;;;640.20;2432.00;;;;;;5016145;28;20041;-80
2021/08/10 05:09:44;;;;;;;18.15;10.65;;;640.40;2432.00;;;;;;5006326;28;20027;-80
2021/08/10 05:12:10;;;;;;;16.77;11.30;;;640.50;2432.00;;;;;;5011807;28;20076;-80
2021/08/10 05:14:36;;;;;;;11.63;9.18;;;640.70;2432.00;;;;;;5014213;28;20022;-80
2021/08/10 05:17:03;;;;;;;14.55;10.13;;;665.60;2432.00;;;;;;5013021;28;20028;-80
2021/08/10 05:19:28;;;;;;;16.17;10.15;;;665.80;2432.00;;;;;;5006036;28;20030;-80
2021/08/10 05:21:54;;;;;;;13.50;8.88;;;666.00;2432.00;;;;;;5012718;28;20119;-80
2021/08/10 05:24:20;;;;;;;15.88;9.93;;;666.10;2432.00;;;;;;5023986;28;20061;-79
2021/08/10 05:26:45;;;;;;;10.20;8.95;;;666.20;2432.00;;;;;;5017162;28;20041;-79
2021/08/10 05:29:12;;;;;;;12.57;9.40;;;666.20;2432.00;;;;;;5021722;28;20022;-79
2021/08/10 05:31:39;;;;;;;16.70;11.90;;;666.20;2432.00;;;;;;5011937;28;20083;-79
2021/08/10 05:34:04;;;;;;;18.70;12.85;;;666.10;2432.00;;;;;;5014084;28;20053;-79
2021/08/10 05:36:31;;;;;;;15.68;13.18;;;666.30;2432.00;;;;;;5009820;28;20104;-80
2021/08/10 05:38:57;;;;;;;15.98;12.88;;;666.10;2432.00;;;;;;5044976;28;20038;-80
2021/08/10 05:41:23;;;;;;;9.15;7.72;;;666.20;2432.00;;;;;;5012019;28;20033;-80
2021/08/10 05:43:50;;;;;;;9.10;7.43;;;666.00;2432.00;;;;;;5013582;28;20030;-81
2021/08/10 05:46:16;;;;;;;9.77;8.30;;;666.10;2432.00;;;;;;5013094;28;20050;-81
2021/08/10 05:48:42;;;;;;;11.25;7.68;;;665.90;2432.00;;;;;;5011663;28;20072;-81
2021/08/10 05:51:07;;;;;;;8.15;6.82;;;666.10;2432.00;;;;;;5013979;28;20026;-81
2021/08/10 05:53:34;;;;;;;11.93;7.70;;;666.20;2432.00;;;;;;5012754;28;20027;-81
2021/08/10 05:56:01;;;;;;;9.98;6.88;;;666.30;2432.00;;;;;;4995220;28;20422;-81
2021/08/10 05:58:27;;;;;;;9.75;7.70;;;666.30;2432.00;;;;;;5006694;28;20385;-81
2021/08/10 06:00:53;;;;;;;14.32;8.02;;;666.30;2432.00;;;;;;5011897;28;20025;-81
2021/08/10 06:03:19;;;;;;;29.05;9.48;;;666.40;2432.00;;;;;;5010868;28;20046;-81
2021/08/10 06:05:45;;;;;;;11.38;7.97;;;666.50;2432.00;;;;;;5012551;28;20033;-81
2021/08/10 06:08:11;;;;;;;10.63;8.15;;;691.20;2432.00;;;;;;5004676;28;20462;-81
2021/08/10 06:10:37;;;;;;;10.80;7.93;;;691.40;2432.00;;;;;;5008219;28;20492;-81
2021/08/10 06:13:03;;;;;;;11.73;7.32;;;691.40;2432.00;;;;;;5011572;28;20026;-81
2021/08/10 06:15:29;;;;;;;8.77;7.47;;;691.70;2432.00;;;;;;5012470;28;20447;-81
2021/08/10 06:17:55;;;;;;;9.73;8.52;;;691.70;2432.00;;;;;;5011703;28;20030;-81
2021/08/10 06:20:22;;;;;;;11.15;7.05;;;691.80;2432.00;;;;;;5010810;28;20381;-81
2021/08/10 06:22:48;;;;;;;9.70;7.85;;;692.10;2432.00;;;;;;5012913;28;20029;-82
2021/08/10 06:25:14;;;;;;;8.98;7.20;;;692.00;2432.00;;;;;;5010923;28;20030;-81
2021/08/10 06:27:40;;;;;;;9.15;6.97;;;716.80;2432.00;;;;;;5012889;28;20057;-80
2021/08/10 06:30:08;;;;;;;11.15;7.10;;;716.90;2432.00;;;;;;5008495;28;20030;-80
2021/08/10 06:32:34;;;;;;;10.15;6.97;;;717.10;2432.00;;;;;;5011172;28;20026;-81
2021/08/10 06:34:59;;;;;;;10.13;6.97;;;717.30;2432.00;;;;;;5011944;28;20026;-81
2021/08/10 06:37:25;;;;;;;8.95;6.57;;;717.60;2432.00;;;;;;5013471;28;20030;-81
2021/08/10 06:39:51;;;;;;;10.07;6.75;;;717.70;2432.00;;;;;;5011226;28;20114;-81
2021/08/10 06:42:21;;;;;;;8.18;6.57;;;742.60;2432.00;;;;;;5023567;28;20034;-79
2021/08/10 06:44:47;;;;;;;8.98;6.95;;;742.60;2432.00;;;;;;5011060;28;20029;-80
2021/08/10 06:47:14;;;;;;;15.52;7.88;;;742.70;2432.00;;;;;;5009162;28;20114;-82
2021/08/10 06:49:40;;;;;;;14.80;9.57;;;742.80;2432.00;;;;;;5017852;28;20030;-79
2021/08/10 06:52:09;;;;;;;10.63;8.20;;;743.10;2432.00;;;;;;5011048;28;20075;-79
2021/08/10 06:54:36;;;;;;;7.68;6.28;;;743.30;2432.00;;;;;;5012567;28;20022;-79
2021/08/10 06:57:06;;;;;;;9.45;6.93;;;768.20;2432.00;;;;;;5011264;28;20452;-79
2021/08/10 06:59:35;;;;;;;8.77;7.15;;;768.50;2432.00;;;;;;5011548;28;20022;-79
2021/08/10 07:02:02;;;;;;;7.88;6.72;;;768.70;2432.00;;;;;;5012020;28;20030;-79
2021/08/10 07:04:28;;;;;;;12.48;6.70;;;793.60;2432.00;;;;;;5014823;28;20078;-79
2021/08/10 07:06:54;;;;;;;16.67;6.22;;;793.90;2432.00;;;;;;5015205;28;20030;-79
2021/08/10 07:09:22;;;;;;;10.02;6.10;;;794.10;2432.00;;;;;;5015181;28;20026;-79
2021/08/10 07:11:48;;;;;;;7.70;6.85;;;794.20;2432.00;;;;;;5028087;28;20481;-79
2021/08/10 07:14:14;;;;;;;8.38;5.60;;;794.30;2432.00;;;;;;5016481;28;20464;-79
2021/08/10 07:16:41;;;;;;;5.78;5.18;;;794.40;2432.00;;;;;;5005878;28;20053;-79
2021/08/10 07:19:07;;;;;;;9.70;6.38;;;794.30;2432.00;;;;;;5016092;28;20022;-79
2021/08/10 07:21:33;;;;;;;8.73;5.90;;;794.30;2432.00;;;;;;5022850;28;20084;-78
2021/08/10 07:23:59;;;;;;;9.20;6.53;;;794.30;2432.00;;;;;;5016197;28;20029;-79
2021/08/10 07:26:25;;;;;;;9.80;5.70;;;819.20;2432.00;;;;;;5015927;28;20029;-79
2021/08/10 07:28:51;;;;;;;10.30;5.50;;;819.30;2432.00;;;;;;5016363;28;20493;-79
2021/08/10 07:31:17;;;;;;;8.70;5.40;;;819.30;2432.00;;;;;;5018642;28;20033;-79
2021/08/10 07:33:43;;;;;;;7.45;5.22;;;819.50;2432.00;;;;;;5024233;28;20503;-79
2021/08/10 07:36:09;;;;;;;9.60;6.25;;;819.70;2432.00;;;;;;5063472;28;20033;-79
2021/08/10 07:38:34;;;;;;;7.32;5.25;;;820.10;2432.00;;;;;;5016026;28;20121;-79
2021/08/10 07:41:00;;;;;;;7.28;5.03;;;845.10;2432.00;;;;;;5015450;28;20030;-79
2021/08/10 07:43:26;;;;;;;7.68;5.53;;;845.40;2432.00;;;;;;5014557;28;20034;-79
2021/08/10 07:45:53;;;;;;;6.18;4.80;;;845.50;2432.00;;;;;;5004999;28;20123;-80
2021/08/10 07:48:18;;;;;;;6.30;4.57;;;845.20;2432.00;;;;;;5004376;28;20121;-78
2021/08/10 07:50:47;;;;;;;7.90;5.32;;;845.10;2432.00;;;;;;5014288;28;20199;-79
2021/08/10 07:53:13;;;;;;;8.43;5.43;;;845.10;2432.00;;;;;;5013763;28;20099;-79
2021/08/10 07:55:39;;;;;;;11.75;5.40;;;845.30;2432.00;;;;;;5013937;28;20532;-79
2021/08/10 07:58:05;;;;;;;7.50;4.40;;;845.30;2432.00;;;;;;5009572;28;20022;-79
2021/08/10 08:00:30;;;;;;;7.35;5.63;;;845.50;2380.80;;;;;;5014184;28;20025;-79
2021/08/10 08:02:56;;;;;;;5.35;4.85;;;845.50;2406.40;;;;;;5019309;28;20480;-79
2021/08/10 08:05:22;;;;;;;6.07;4.95;;;845.70;2380.80;;;;;;5021828;28;21451;-80
2021/08/10 08:07:47;;;;;;;6.20;5.28;;;870.40;2355.20;;;;;;5017763;28;20029;-80
2021/08/10 08:10:13;;;;;;;5.72;4.60;;;870.60;2329.60;;;;;;5017227;28;20064;-82
2021/08/10 08:12:39;;;;;;;8.55;4.45;;;870.90;2304.00;;;;;;5013505;28;20037;-78
2021/08/10 08:15:06;;;;;;;8.88;4.95;;;871.10;2278.40;;;;;;5008062;28;20094;-77
2021/08/10 08:17:33;;;;;;;14.68;5.68;;;871.30;2252.80;;;;;;5012411;28;20397;-77
2021/08/10 08:19:58;;;;;;;6.20;4.22;;;871.30;2252.80;;;;;;5007903;28;20034;-77
2021/08/10 08:22:24;;;;;;;6.78;4.43;;;896.00;2201.60;;;;;;5002320;28;20406;-77
2021/08/10 08:24:50;;;;;;;7.50;4.85;;;896.20;2176.00;;;;;;5008953;28;20110;-78
2021/08/10 08:27:16;;;;;;;9.70;4.53;;;896.30;2150.40;;;;;;5005091;28;20033;-78
2021/08/10 08:29:41;;;;;;;11.30;4.70;;;896.30;2124.80;;;;;;5010261;28;20030;-77
2021/08/10 08:32:08;;;;;;;7.38;4.85;;;896.50;2099.20;;;;;;5004804;28;20489;-77
2021/08/10 08:34:34;;;;;;;5.93;4.03;;;896.50;2073.60;;;;;;5005720;28;20026;-77
2021/08/10 08:37:00;;;;;;;8.90;4.60;;;921.60;2073.60;;;;;;5011212;28;20026;-77
2021/08/10 08:39:25;;;;;;;6.93;5.10;;;922.00;2048.00;;;;;;5006275;28;20025;-78
2021/08/10 08:41:52;;;;;;;10.32;4.55;;;921.70;2022.40;;;;;;5021928;28;20061;-77
2021/08/10 08:44:19;;;;;;;9.40;4.60;;;922.10;1971.20;;;;;;5007373;28;20793;-77
2021/08/10 08:46:46;;;;;;;6.43;4.57;;;922.10;1996.80;;;;;;5002740;28;20021;-77
2021/08/10 08:49:14;;;;;;;8.50;5.10;;;921.70;1996.80;;;;;;5006742;28;20034;-77
2021/08/10 08:51:48;;;;;;;7.35;3.90;;;922.40;1945.60;;;;;;5010899;28;20034;-77
2021/08/10 08:54:14;;;;;;;5.75;4.13;;;947.50;1894.40;;;;;;5006642;28;20030;-77
2021/08/10 08:56:40;;;;;;;8.43;4.00;;;947.80;1868.80;;;;;;5001734;28;20030;-77
2021/08/10 08:59:06;;;;;;;7.25;3.95;;;947.90;1868.80;;;;;;5007524;28;20034;-77
2021/08/10 09:01:32;;;;;;;5.97;3.33;;;972.80;1817.60;;;;;;5009633;28;20026;-77
2021/08/10 09:03:58;;;;;;;8.90;5.10;;;973.10;1766.40;;;;;;5006964;28;20042;-77
2021/08/10 09:06:24;;;;;;;10.75;4.97;;;973.10;1792.00;;;;;;5003876;28;20034;-78
2021/08/10 09:08:55;;;;;;;11.27;4.25;;;947.40;1817.60;;;;;;5010685;28;20071;-77
2021/08/10 09:11:23;;;;;;;4.47;3.60;;;921.60;1894.40;;;;;;5006704;28;20033;-78
2021/08/10 09:14:00;;;;;;;5.03;3.88;;;896.70;1868.80;;;;;;5012340;28;20018;-78
2021/08/10 09:16:25;;;;;;;10.02;4.28;;;922.00;1843.20;;;;;;5013963;28;20048;-78
2021/08/10 09:18:52;;;;;;;8.02;3.95;;;947.30;1766.40;;;;;;4998335;28;20104;-77
2021/08/10 09:21:20;;;;;;;7.78;4.20;;;947.70;1740.80;;;;;;5019161;28;20025;-78
2021/08/10 09:23:53;;;;;;;10.07;5.20;;;972.90;1715.20;;;;;;5020529;28;20025;-78
2021/08/10 09:26:22;;;;;;;10.60;4.95;;;973.40;1689.60;;;;;;5016754;28;20022;-78
2021/08/10 09:28:49;;;;;;;41.03;8.73;;;998.60;1664.00;;;;;;5021032;28;20021;-78
2021/08/10 09:31:33;;;;;;;25.35;7.43;;;998.80;1689.60;;;;;;5012355;28;20485;-78
2021/08/10 09:34:04;;;;;;;18.60;5.72;;;998.70;1638.40;;;;;;5012621;28;20714;-77
2021/08/10 09:36:31;;;;;;;90.13;13.85;;;998.50;1638.40;;;;;;5012432;28;20091;-77
2021/08/10 09:38:58;;;;;;;12.50;5.45;;;999.00;1612.80;;;;;;5004846;28;20036;-78
2021/08/10 09:41:26;;;;;;;19.58;5.82;;;999.30;1587.20;;;;;;5015627;28;20049;-78
2021/08/10 09:44:11;;;;;;;11.93;5.50;;;999.00;1587.20;;;;;;5026614;28;20101;-78
2021/08/10 09:46:38;;;;;;;11.82;4.28;;;998.90;1561.60;;;;;;5009940;28;20053;-78
2021/08/10 09:49:08;;;;;;;40.53;8.18;;;1024.00;1510.40;;;;;;5013442;28;20176;-78
2021/08/10 09:51:42;;;;;;;7.47;4.03;;;1024.50;1510.40;;;;;;5009371;28;20067;-78
2021/08/10 09:54:12;;;;;;;10.05;4.50;;;1024.50;1510.40;;;;;;5006252;28;20025;-78
2021/08/10 09:56:39;;;;;;;15.23;4.75;;;1024.40;1484.80;;;;;;5016968;28;20021;-78
2021/08/10 09:59:06;;;;;;;20.58;5.75;;;999.30;1510.40;;;;;;5011639;28;20022;-77
2021/08/10 10:01:40;;;;;;;18.77;6.00;;;1024.10;1484.80;;;;;;5015932;28;20081;-78
2021/08/10 10:04:14;;;;;;;25.00;6.10;;;1024.80;1459.20;;;;;;5008517;28;20053;-78
2021/08/10 10:06:41;;;;;;;11.23;4.72;;;1049.60;1459.20;;;;;;5003211;28;20041;-79
2021/08/10 10:09:07;;;;;;;15.40;5.22;;;1050.10;1433.60;;;;;;5004377;28;20363;-80
2021/08/10 10:11:35;;;;;;;9.90;3.83;;;1050.30;1408.00;;;;;;5010635;28;20032;-79
2021/08/10 10:14:01;;;;;;;4.60;3.65;;;1024.80;1408.00;;;;;;5012093;28;20021;-79
2021/08/10 10:16:28;;;;;;;5.53;3.50;;;1024.90;1408.00;;;;;;5011152;28;20477;-79
2021/08/10 10:18:57;;;;;;;5.30;3.58;;;1024.90;1408.00;;;;;;5016704;28;20030;-79
2021/08/10 10:21:23;;;;;;;4.05;3.35;;;1024.60;1408.00;;;;;;5009642;28;20030;-79
2021/08/10 10:23:53;;;;;;;6.63;3.72;;;1049.80;1382.40;;;;;;5048023;28;20038;-79
2021/08/10 10:26:19;;;;;;;5.68;4.07;;;1050.40;1356.80;;;;;;5016496;28;20230;-79
2021/08/10 10:28:46;;;;;;;5.13;3.83;;;1075.50;1331.20;;;;;;5016448;28;20100;-79
2021/08/10 10:31:12;;;;;;;5.03;3.45;;;1075.40;1331.20;;;;;;5013084;28;20457;-79
2021/08/10 10:33:39;;;;;;;13.63;5.20;;;1075.20;1331.20;;;;;;5009754;28;20128;-79
2021/08/10 10:36:05;;;;;;;5.90;3.80;;;1050.30;1331.20;;;;;;5011979;28;20424;-79
2021/08/10 10:38:32;;;;;;;12.05;4.00;;;1075.20;1331.20;;;;;;5009704;28;20026;-78
2021/08/10 10:41:00;;;;;;;7.00;4.00;;;1075.30;1331.20;;;;;;5010528;28;20032;-79
2021/08/10 10:43:29;;;;;;;9.65;4.70;;;1050.50;1331.20;;;;;;5011369;28;20034;-78
2021/08/10 10:45:55;;;;;;;9.48;4.65;;;1075.30;1305.60;;;;;;5008604;28;20033;-77
2021/08/10 10:48:27;;;;;;;8.45;5.10;;;1075.80;1254.40;;;;;;5010134;28;20397;-77
2021/08/10 10:51:09;;;;;;;6.97;4.82;;;1075.60;1280.00;;;;;;5008567;28;20029;-77
2021/08/10 10:53:35;;;;;;;5.30;3.75;;;1075.70;1280.00;;;;;;5009459;28;20109;-77
2021/08/10 10:56:01;;;;;;;3.95;3.40;;;1076.10;1280.00;;;;;;5007111;28;20133;-77
2021/08/10 10:58:27;;;;;;;5.35;3.53;;;1101.40;1254.40;;;;;;5009824;28;20469;-77
2021/08/10 11:01:13;;;;;;;6.72;3.25;;;1101.30;1254.40;;;;;;5003593;28;20014;-77
2021/08/10 11:03:44;;;;;;;5.20;3.28;;;1100.80;1280.00;;;;;;5005322;28;20100;-77
2021/08/10 11:06:44;;;;;;;8.18;3.80;;;1100.90;1254.40;;;;;;5006904;28;20037;-77
2021/08/10 11:09:36;;;;;;;12.07;4.60;;;1101.50;1254.40;;;;;;5005460;28;20045;-77
2021/08/10 11:12:02;;;;;;;5.25;3.53;;;1075.70;1254.40;;;;;;4990111;28;20033;-77
2021/08/10 11:14:37;;;;;;;8.60;3.90;;;1049.70;1280.00;;;;;;5004431;28;20463;-76
2021/08/10 11:17:09;;;;;;;;;;;1049.60;1305.60;;;;;;5003870;28;20022;-77
2021/08/10 11:19:37;;;;;;;6.57;3.72;;;1050.10;1305.60;;;;;;4984907;28;19905;-77
2021/08/10 11:22:17;;;;;;;4.65;3.55;;;1075.20;1254.40;;;;;;5006988;28;20096;-77
2021/08/10 11:25:02;;;;;;;5.72;3.28;;;1075.70;1177.60;;;;;;5008375;28;20188;-77
2021/08/10 11:27:44;;;;;;;6.55;4.25;;;1101.30;1177.60;;;;;;5008572;28;20108;-76
2021/08/10 11:30:22;;;;;;;7.30;2.72;;;1101.40;1152.00;;;;;;5004437;28;20088;-77
2021/08/10 11:32:49;;;;;;;7.10;3.13;;;1101.40;1152.00;;;;;;5004136;28;20062;-77
2021/08/10 11:35:25;;;;;;;4.38;3.15;;;1101.70;1152.00;;;;;;5007318;28;20030;-77
2021/08/10 11:38:12;;;;;;;5.68;2.35;;;1126.40;1152.00;;;;;;5006251;28;20133;-77
2021/08/10 11:40:55;;;;;;;4.65;2.90;;;1126.70;1049.60;;;;;;5008493;28;20112;-77
2021/08/10 11:43:23;;;;;;;3.67;2.70;;;1126.40;1100.80;;;;;;5006056;28;20041;-77
2021/08/10 11:45:50;;;;;;;4.30;2.97;;;1101.70;1024.00;;;;;;5004192;28;20046;-77
2021/08/10 11:48:18;;;;;;;8.05;2.90;;;1126.50;1049.60;;;;;;5004722;28;20033;-77
2021/08/10 11:50:44;;;;;;;4.47;2.53;;;1126.80;1075.20;;;;;;5010182;28;20044;-77
2021/08/10 11:53:10;;;;;;;4.55;3.35;;;1126.90;1075.20;;;;;;5010439;28;20029;-77
2021/08/10 11:55:37;;;;;;;7.55;3.55;;;1126.70;1049.60;;;;;;5011800;28;20029;-77
2021/08/10 11:58:05;;;;;;;5.35;2.75;;;1101.50;1049.60;;;;;;5012928;28;20026;-77
2021/08/10 12:00:35;;;;;;;6.60;2.85;;;1126.40;1024.00;;;;;;5013290;28;20508;-77
2021/08/10 12:03:01;;;;;;;4.40;3.30;;;1101.40;998.40;;;;;;5012781;28;20029;-77
2021/08/10 12:05:28;;;;;;;5.35;3.00;;;1101.40;998.40;;;;;;5011149;28;20497;-77
2021/08/10 12:07:59;;;;;;;4.25;3.50;;;1101.30;998.40;;;;;;5010961;28;20018;-77
2021/08/10 12:10:30;;;;;;;4.72;2.97;;;1101.40;998.40;;;;;;5011306;28;20014;-77
2021/08/10 12:12:57;;;;;;;6.03;3.50;;;1126.40;1024.00;;;;;;5012975;28;20361;-77
2021/08/10 12:15:41;;;;;;;3.88;3.22;;;1101.70;972.80;;;;;;5011764;28;20547;-77